• Join FlightAware (Why Join?)
  • Login
  • US Flag 
08:21PM EST


 

Airport Tracker/Info


-or-


 

Live Flight TrackerFlight Track Log ✈ RPA3436 ✈ 07-Jul-2013 ✈ KDCA - KALB

Flight Track Log - Related Links

Times and Time Zones

All times are in EDT time to prevent confusion due to time zone crossing. See the RPA3436 flight status page for this flight to view local times or setup timezone preferences in your user account.

Time Position Orientation Groundspeed Altitude Reporting Facility
EDT Latitude Longitude Course Direction KTS MPH feet Rate Location/Type
10:25AM 38.8333 -77.0167 61° Northeast 157 181 1,300  Level Potomac TRACON
10:26AM 38.7833 -77.0333 195° South 214 246 3,700 2,220 Climbing Potomac TRACON
10:27AM 38.7667 -76.9667 108° East 254 292 5,600 2,400 Climbing Potomac TRACON
10:28AM 38.9558 -76.7160 67° East  Level FlightAware Approximate
10:28AM 38.8333 -76.9000 38° Northeast 305 351 8,600  Level Potomac TRACON
10:29AM 38.9968 -76.6097 67° East  Level FlightAware Approximate
10:30AM 39.0385 -76.5038 63° Northeast  Level FlightAware Approximate
10:31AM 39.0817 -76.3984 61° Northeast  Level FlightAware Approximate
10:31AM 38.9828 -76.7586 36° Northeast 323 372 13,400  Level Washington Center
10:32AM 39.0214 -76.6389 67° East 328 377 15,600 2,040 Climbing Washington Center
10:33AM 39.0600 -76.5139 68° East 343 395 17,500 1,860 Climbing Washington Center
10:34AM 39.1003 -76.3861 68° East 383 441 19,400 1,680 Climbing Washington Center
10:35AM 39.1408 -76.2553 68° East 394 453 21,000 1,500 Climbing Washington Center
10:36AM 39.1686 -76.1003 77° East 399 459 22,500 1,320 Climbing Washington Center
10:37AM 39.1839 -75.9531 82° East 404 465 23,700 1,260 Climbing Washington Center
10:38AM 39.2383 -75.8219 62° Northeast 403 464 25,100 1,380 Climbing Washington Center
10:39AM 39.3217 -75.7150 45° Northeast 403 464 26,500 900 Climbing Washington Center
10:40AM 39.4114 -75.6022 44° Northeast 417 480 27,000 240 Climbing Washington Center
10:41AM 39.5008 -75.4839 46° Northeast 442 509 27,000  Level Washington Center
10:42AM 39.5903 -75.3653 46° Northeast 452 520 27,000  Level Washington Center
10:43AM 39.6797 -75.2464 46° Northeast 452 520 27,000  Level Washington Center
10:44AM 39.7622 -75.1269 48° Northeast 479 551 27,000  Level New York Center
10:45AM 39.8481 -75.0025 48° Northeast 485 558 27,000  Level New York Center
10:46AM 39.9314 -74.8831 48° Northeast 470 541 27,000  Level New York Center
10:47AM 40.0211 -74.7581 47° Northeast 470 541 27,000  Level New York Center
10:48AM 40.1067 -74.6356 48° Northeast 458 527 27,000  Level New York Center
10:49AM 40.1939 -74.5100 48° Northeast 458 527 27,000  Level New York Center
10:50AM 40.2889 -74.4036 40° Northeast 447 514 27,000  Level New York Center
10:51AM 40.3839 -74.2994 40° Northeast 447 514 27,000  Level New York Center
10:52AM 40.4850 -74.1928 39° Northeast 452 520 27,000  Level New York Center
10:53AM 40.5817 -74.0883 39° Northeast 452 520 27,000 -900 Level New York Center
10:55AM 40.8161 -73.8386 39° Northeast 448 516 24,000 -960 Descending Boston Center
10:56AM 40.9050 -73.7281 43° Northeast 429 494 23,800 -540 Descending Boston Center
10:57AM 41.0061 -73.6392 34° Northeast 424 488 23,000 -420 Descending Boston Center
10:58AM 41.1111 -73.5642 28° Northeast 424 488 23,000 -840 Level Boston Center
10:59AM 41.2139 -73.4886 29° Northeast 424 488 21,400 -1,800 Descending Boston Center
11:00AM 41.3167 -73.4156 28° Northeast 419 482 19,500 -1,740 Descending Boston Center
11:01AM 41.4256 -73.3481 25° Northeast 399 459 18,000 -780 Descending Boston Center
11:02AM 41.5192 -73.3606 354° North 369 425 18,000  Level Boston Center
11:03AM 41.6314 -73.3928 348° North 370 426 18,000 -600 Level Boston Center
11:04AM 41.7356 -73.4222 348° North 375 432 16,900 -1,200 Descending Boston Center
11:05AM 41.8372 -73.4517 348° North 375 432 15,700 -1,680 Descending Boston Center
11:06AM 41.9039 -73.4694 349° North 362 417 13,600 -2,880 Descending Boston Center
11:07AM 41.9892 -73.4931 348° North 343 395 11,200 -1,800 Descending Boston Center
11:08AM 42.0722 -73.5197 347° North 331 381 11,000 -180 Descending Boston Center
11:08AM 42.1056 -73.5258 352° North 337 388 11,000  Level Boston Center
11:09AM 42.1681 -73.5186 North 348 400 11,000  Level Boston Center
11:09AM 42.2036 -73.5192 359° North 332 382 11,000 -900 Level Boston Center
11:10AM 42.2889 -73.5375 351° North 327 376 9,700 -1,860 Descending Boston Center
11:11AM 42.3367 -73.5522 347° North 278 320 8,200 -2,220 Descending Boston Center
11:12AM 42.4136 -73.5678 352° North 279 321 6,300 -1,620 Descending Boston Center
11:13AM 42.4864 -73.5858 350° North 273 314 5,000 -660 Descending Boston Center
11:14AM 42.5675 -73.6072 349° North 269 310 5,000  Level Boston Center
11:14AM 42.5986 -73.6106 355° North 276 318 5,000 -240 Level Boston Center
11:15AM 42.6858 -73.6319 350° North 276 318 4,700 -300 Descending Boston Center